Time;durP1;ratioP1;P1;durP2;ratioP2;P2;SDS_P1;SDS_P2;PMS_P1;PMS_P2;Temp;Humidity;BMP_temperature;BMP_pressure;BME280_temperature;BME280_humidity;BME280_pressure;Samples;Min_cycle;Max_cycle;Signal;HPM_P1;HPM_P2
2021/05/22 00:00:11;;;;;;;7.82;1.70;;;;;;;-145.12;100.00;63763.75;352692;27;71730;-68
2021/05/22 00:01:21;;;;;;;11.50;1.90;;;;;;;-145.12;100.00;63763.75;352691;27;70904;-69
2021/05/22 00:02:31;;;;;;;7.95;1.88;;;;;;;-145.12;100.00;63763.75;352446;27;71573;-69
2021/05/22 00:03:42;;;;;;;10.85;1.55;;;;;;;-145.12;100.00;63763.75;351466;27;70214;-69
2021/05/22 00:04:53;;;;;;;7.30;1.80;;;;;;;-145.12;100.00;63763.75;351449;28;71226;-70
2021/05/22 00:06:04;;;;;;;8.02;1.45;;;;;;;-145.12;100.00;63763.75;352781;27;71642;-69
2021/05/22 00:07:14;;;;;;;8.50;1.90;;;;;;;-145.12;100.00;63763.75;351340;27;71979;-68
2021/05/22 00:08:25;;;;;;;7.15;1.48;;;;;;;-145.12;100.00;63763.75;352124;27;71291;-70
2021/05/22 00:09:35;;;;;;;8.25;1.60;;;;;;;-145.12;100.00;63763.75;351548;27;71522;-69
2021/05/22 00:10:45;;;;;;;8.27;1.50;;;;;;;-145.12;100.00;63763.75;351446;27;71503;-69
2021/05/22 00:11:55;;;;;;;8.25;1.73;;;;;;;-145.12;100.00;63763.75;351391;27;71442;-69
2021/05/22 00:13:06;;;;;;;8.93;1.77;;;;;;;-145.12;100.00;63763.75;351506;27;71546;-69
2021/05/22 00:14:16;;;;;;;9.05;1.70;;;;;;;-145.12;100.00;63763.75;349946;28;71692;-70
2021/05/22 00:15:26;;;;;;;9.25;1.73;;;;;;;-145.12;100.00;63763.75;349988;28;71565;-68
2021/05/22 00:16:36;;;;;;;5.82;1.38;;;;;;;-145.12;100.00;63763.75;351466;27;70947;-69
2021/05/22 00:17:46;;;;;;;8.15;1.55;;;;;;;-145.12;100.00;63763.75;351396;27;71697;-68
2021/05/22 00:18:56;;;;;;;11.32;1.75;;;;;;;-145.12;100.00;63763.75;351410;27;71915;-68
2021/05/22 00:20:07;;;;;;;7.25;1.40;;;;;;;-145.12;100.00;63763.75;351486;27;71782;-66
2021/05/22 00:21:17;;;;;;;8.93;1.42;;;;;;;-145.12;100.00;63763.75;350646;27;94448;-69
2021/05/22 00:22:27;;;;;;;11.88;2.33;;;;;;;-145.12;100.00;63763.75;351529;27;71440;-67
2021/05/22 00:23:38;;;;;;;12.55;1.70;;;;;;;-145.12;100.00;63763.75;351525;27;70913;-68
2021/05/22 00:24:48;;;;;;;11.07;1.90;;;;;;;-145.12;100.00;63763.75;351488;27;71714;-67
2021/05/22 00:25:58;;;;;;;8.18;1.62;;;;;;;-145.12;100.00;63763.75;350567;27;94548;-67
2021/05/22 00:27:08;;;;;;;9.90;2.17;;;;;;;-145.12;100.00;63763.75;351489;27;71634;-67
2021/05/22 00:28:18;;;;;;;6.72;1.67;;;;;;;-145.12;100.00;63763.75;351459;27;71934;-67
2021/05/22 00:29:30;;;;;;;6.57;1.75;;;;;;;-145.12;100.00;63763.75;351499;27;71029;-66
2021/05/22 00:30:41;;;;;;;10.73;1.90;;;;;;;-145.12;100.00;63763.75;351487;27;70436;-67
2021/05/22 00:31:51;;;;;;;7.26;1.70;;;;;;;-145.12;100.00;63763.75;350732;27;94760;-67
2021/05/22 00:33:01;;;;;;;9.25;1.52;;;;;;;-145.12;100.00;63763.75;351500;27;71713;-69
2021/05/22 00:34:11;;;;;;;10.43;1.95;;;;;;;-145.12;100.00;63763.75;351409;27;70803;-66
2021/05/22 00:35:21;;;;;;;10.50;1.60;;;;;;;-145.12;100.00;63763.75;351477;27;71827;-68
2021/05/22 00:36:31;;;;;;;10.50;1.90;;;;;;;-145.12;100.00;63763.75;351471;27;71824;-65
2021/05/22 00:37:41;;;;;;;7.32;1.52;;;;;;;-145.12;100.00;63763.75;351448;27;71821;-66
2021/05/22 00:38:51;;;;;;;8.98;1.40;;;;;;;-145.12;100.00;63763.75;351402;27;71550;-67
2021/05/22 00:40:02;;;;;;;9.93;1.70;;;;;;;-145.12;100.00;63763.75;351448;27;71475;-66
2021/05/22 00:41:13;;;;;;;9.90;2.10;;;;;;;-145.12;100.00;63763.75;351456;27;69945;-67
2021/05/22 00:42:23;;;;;;;6.53;1.33;;;;;;;-145.12;100.00;63763.75;351482;27;71548;-67
2021/05/22 00:43:34;;;;;;;8.07;1.95;;;;;;;-145.12;100.00;63763.75;351403;27;71344;-67
2021/05/22 00:45:02;;;;;;;10.48;1.88;;;;;;;-145.12;100.00;63763.75;351482;27;71940;-68
2021/05/22 00:46:17;;;;;;;8.57;1.92;;;;;;;-145.12;100.00;63763.75;351498;27;71405;-70
2021/05/22 00:47:27;;;;;;;10.25;1.85;;;;;;;-145.12;100.00;63763.75;351379;27;71996;-68
2021/05/22 00:48:39;;;;;;;9.15;1.52;;;;;;;-145.12;100.00;63763.75;349955;28;71539;-69
2021/05/22 00:49:49;;;;;;;7.32;1.65;;;;;;;-145.12;100.00;63763.75;349902;28;68928;-63
2021/05/22 00:50:59;;;;;;;8.55;1.60;;;;;;;-145.12;100.00;63763.75;351394;27;71773;-62
2021/05/22 00:52:09;;;;;;;11.57;1.88;;;;;;;-145.12;100.00;63763.75;350579;27;94584;-62
2021/05/22 00:53:19;;;;;;;7.35;1.40;;;;;;;-145.12;100.00;63763.75;351388;27;70740;-67
2021/05/22 00:54:30;;;;;;;7.80;1.75;;;;;;;-145.12;100.00;63763.75;351450;27;71784;-62
2021/05/22 00:55:40;;;;;;;12.60;1.90;;;;;;;-145.12;100.00;63763.75;351358;27;70871;-61
2021/05/22 00:56:50;;;;;;;9.88;1.65;;;;;;;-145.12;100.00;63763.75;351432;27;71554;-62
2021/05/22 00:58:01;;;;;;;8.98;1.77;;;;;;;-145.12;100.00;63763.75;351428;27;69584;-63
2021/05/22 00:59:13;;;;;;;10.20;1.80;;;;;;;-145.12;100.00;63763.75;351483;27;70733;-63
2021/05/22 01:00:36;;;;;;;8.45;1.80;;;;;;;-145.12;100.00;63763.75;352791;27;71688;-63
2021/05/22 01:01:47;;;;;;;11.70;1.88;;;;;;;-145.12;100.00;63763.75;352860;27;71641;-61
2021/05/22 01:02:57;;;;;;;11.15;1.60;;;;;;;-145.12;100.00;63763.75;352791;27;72106;-68
2021/05/22 01:04:09;;;;;;;9.77;1.77;;;;;;;-145.12;100.00;63763.75;352712;27;71703;-62
2021/05/22 01:05:19;;;;;;;13.15;1.75;;;;;;;-145.12;100.00;63763.75;352882;27;71647;-64
2021/05/22 01:06:32;;;;;;;9.18;1.70;;;;;;;-145.12;100.00;63763.75;352837;27;71471;-68
2021/05/22 01:07:44;;;;;;;10.07;2.20;;;;;;;-145.12;100.00;63763.75;352733;27;71128;-67
2021/05/22 01:08:56;;;;;;;11.10;1.95;;;;;;;-145.12;100.00;63763.75;352825;27;71739;-64
2021/05/22 01:10:08;;;;;;;6.32;1.50;;;;;;;-145.12;100.00;63763.75;350087;28;70885;-67
2021/05/22 01:11:25;;;;;;;10.70;2.28;;;;;;;-145.12;100.00;63763.75;351283;27;70542;-70
2021/05/22 01:12:41;;;;;;;7.57;1.50;;;;;;;-145.12;100.00;63763.75;352804;27;69352;-67
2021/05/22 01:13:57;;;;;;;8.35;1.75;;;;;;;-145.12;100.00;63763.75;352760;27;70191;-68
2021/05/22 01:15:16;;;;;;;6.95;1.67;;;;;;;-145.12;100.00;63763.75;352854;27;70752;-65
2021/05/22 01:16:27;;;;;;;8.20;1.80;;;;;;;-145.12;100.00;63763.75;352824;27;71833;-67
2021/05/22 01:17:47;;;;;;;11.65;1.50;;;;;;;-145.12;100.00;63763.75;352855;27;71760;-68
2021/05/22 01:18:58;;;;;;;7.68;1.60;;;;;;;-145.12;100.00;63763.75;352806;27;71940;-67
2021/05/22 01:20:21;;;;;;;10.57;2.00;;;;;;;-145.12;100.00;63763.75;352806;27;71389;-66
2021/05/22 01:21:39;;;;;;;10.68;1.98;;;;;;;-145.12;100.00;63763.75;352848;27;71716;-68
2021/05/22 01:23:00;;;;;;;8.65;1.73;;;;;;;-145.12;100.00;63763.75;352765;27;70246;-66
2021/05/22 01:24:17;;;;;;;8.15;1.85;;;;;;;-145.12;100.00;63763.75;352825;27;70552;-66
2021/05/22 01:25:33;;;;;;;12.12;2.00;;;;;;;-145.12;100.00;63763.75;351967;27;94551;-67
2021/05/22 01:26:44;;;;;;;12.32;2.13;;;;;;;-145.12;100.00;63763.75;352872;27;70840;-66
2021/05/22 01:27:55;;;;;;;7.38;1.80;;;;;;;-145.12;100.00;63763.75;352852;27;71082;-67
2021/05/22 01:29:09;;;;;;;7.60;1.60;;;;;;;-145.12;100.00;63763.75;352821;27;71392;-66
2021/05/22 01:30:20;;;;;;;5.90;1.40;;;;;;;-145.12;100.00;63763.75;352674;27;71801;-67
2021/05/22 01:31:32;;;;;;;9.93;2.00;;;;;;;-145.12;100.00;63763.75;351657;27;70526;-67
2021/05/22 01:32:43;;;;;;;9.93;1.95;;;;;;;-145.12;100.00;63763.75;351388;27;71559;-65
2021/05/22 01:33:53;;;;;;;9.77;1.80;;;;;;;-145.12;100.00;63763.75;351439;27;69315;-67
2021/05/22 01:35:05;;;;;;;4.70;1.30;;;;;;;-145.12;100.00;63763.75;351328;27;71252;-67
2021/05/22 01:36:17;;;;;;;6.53;1.77;;;;;;;-145.12;100.00;63763.75;351422;28;70654;-66
2021/05/22 01:37:27;;;;;;;11.18;1.90;;;;;;;-145.12;100.00;63763.75;351425;27;69915;-68
2021/05/22 01:38:37;;;;;;;9.57;1.70;;;;;;;-145.12;100.00;63763.75;351288;27;71506;-66
2021/05/22 01:39:47;;;;;;;8.77;1.88;;;;;;;-145.12;100.00;63763.75;351381;27;71581;-69
2021/05/22 01:40:57;;;;;;;8.82;1.50;;;;;;;-145.12;100.00;63763.75;351353;27;72098;-69
2021/05/22 01:42:08;;;;;;;9.07;1.60;;;;;;;-145.12;100.00;63763.75;351468;27;70919;-67
2021/05/22 01:43:21;;;;;;;11.68;1.85;;;;;;;-145.12;100.00;63763.75;351307;27;70836;-64
2021/05/22 01:44:33;;;;;;;11.52;1.95;;;;;;;-145.12;100.00;63763.75;351423;27;70684;-67
2021/05/22 01:45:45;;;;;;;8.63;1.27;;;;;;;-145.12;100.00;63763.75;349888;28;71755;-67
2021/05/22 01:46:57;;;;;;;8.75;1.77;;;;;;;-145.12;100.00;63763.75;349815;28;71665;-67
2021/05/22 01:48:09;;;;;;;10.15;2.15;;;;;;;-145.12;100.00;63763.75;351267;27;71030;-69
2021/05/22 01:49:27;;;;;;;8.07;1.73;;;;;;;-145.12;100.00;63763.75;351338;27;71691;-68
2021/05/22 01:50:39;;;;;;;7.90;1.63;;;;;;;-145.12;100.00;63763.75;351375;27;71688;-68
2021/05/22 01:52:03;;;;;;;9.50;1.80;;;;;;;-145.12;100.00;63763.75;351333;27;71459;-67
2021/05/22 01:53:17;;;;;;;6.85;1.88;;;;;;;-145.12;100.00;63763.75;349894;28;71152;-68
2021/05/22 01:54:28;;;;;;;7.97;1.73;;;;;;;-145.12;100.00;63763.75;349782;28;71839;-67
2021/05/22 01:55:40;;;;;;;13.32;2.22;;;;;;;-145.12;100.00;63763.75;349834;28;71983;-66
2021/05/22 01:56:50;;;;;;;8.93;1.83;;;;;;;-145.12;100.00;63763.75;349846;28;71612;-68
2021/05/22 01:58:00;;;;;;;7.88;1.68;;;;;;;-145.12;100.00;63763.75;349058;28;94522;-69
2021/05/22 01:59:11;;;;;;;10.20;1.88;;;;;;;-145.12;100.00;63763.75;351335;27;71852;-66
2021/05/22 02:00:21;;;;;;;9.23;1.92;;;;;;;-145.12;100.00;63763.75;351360;27;71453;-69
2021/05/22 02:01:32;;;;;;;9.43;1.92;;;;;;;-145.12;100.00;63763.75;351352;27;70545;-68
2021/05/22 02:02:55;;;;;;;12.00;1.98;;;;;;;-145.12;100.00;63763.75;351385;27;71199;-68
2021/05/22 02:04:10;;;;;;;9.98;1.80;;;;;;;-145.12;100.00;63763.75;350552;27;94598;-67
2021/05/22 02:05:22;;;;;;;6.93;1.50;;;;;;;-145.12;100.00;63763.75;351324;27;71902;-67
2021/05/22 02:06:35;;;;;;;10.90;1.67;;;;;;;-145.12;100.00;63763.75;351340;27;70285;-67
2021/05/22 02:07:48;;;;;;;11.27;1.75;;;;;;;-145.12;100.00;63763.75;351346;27;69587;-68
2021/05/22 02:09:01;;;;;;;8.63;1.52;;;;;;;-145.12;100.00;63763.75;351407;27;69680;-67
2021/05/22 02:10:12;;;;;;;8.98;1.80;;;;;;;-145.12;100.00;63763.75;351600;27;71996;-67
2021/05/22 02:11:26;;;;;;;9.35;1.50;;;;;;;-145.12;100.00;63763.75;351271;27;71597;-67
2021/05/22 02:12:38;;;;;;;11.18;2.00;;;;;;;-145.12;100.00;63763.75;351326;27;71643;-67
2021/05/22 02:13:50;;;;;;;9.10;1.52;;;;;;;-145.12;100.00;63763.75;351312;27;71986;-67
2021/05/22 02:15:02;;;;;;;7.57;1.80;;;;;;;-145.12;100.00;63763.75;351407;27;69550;-68
2021/05/22 02:16:15;;;;;;;9.43;1.75;;;;;;;-145.12;100.00;63763.75;351259;27;71822;-67
2021/05/22 02:17:27;;;;;;;9.85;2.03;;;;;;;-145.12;100.00;63763.75;351336;27;71543;-68
2021/05/22 02:18:41;;;;;;;7.38;1.95;;;;;;;-145.12;100.00;63763.75;351295;27;71106;-67
2021/05/22 02:19:53;;;;;;;10.55;1.48;;;;;;;-145.12;100.00;63763.75;351248;27;70468;-67
2021/05/22 02:21:05;;;;;;;9.38;1.90;;;;;;;-145.12;100.00;63763.75;352467;27;69781;-68
2021/05/22 02:22:22;;;;;;;8.38;1.50;;;;;;;-145.12;100.00;63763.75;352806;27;68833;-67
2021/05/22 02:23:41;;;;;;;9.20;1.92;;;;;;;-145.12;100.00;63763.75;352605;27;69335;-67
2021/05/22 02:24:53;;;;;;;11.52;2.17;;;;;;;-145.12;100.00;63763.75;352718;27;71597;-68
2021/05/22 02:26:04;;;;;;;11.80;1.80;;;;;;;-145.12;100.00;63763.75;352712;27;71082;-67
2021/05/22 02:27:15;;;;;;;9.95;1.70;;;;;;;-145.12;100.00;63763.75;352670;27;69447;-68
2021/05/22 02:28:28;;;;;;;6.93;1.50;;;;;;;-145.12;100.00;63763.75;352752;27;70671;-68
2021/05/22 02:29:40;;;;;;;9.77;1.73;;;;;;;-145.12;100.00;63763.75;352758;27;71483;-68
2021/05/22 02:30:50;;;;;;;8.45;1.55;;;;;;;-145.12;100.00;63763.75;352760;27;69538;-67
2021/05/22 02:32:01;;;;;;;9.90;1.75;;;;;;;-145.12;100.00;63763.75;351188;27;69857;-66
2021/05/22 02:33:14;;;;;;;10.40;1.92;;;;;;;-145.12;100.00;63763.75;351331;27;71547;-67
2021/05/22 02:34:29;;;;;;;8.52;1.68;;;;;;;-145.12;100.00;63763.75;350486;27;92453;-67
2021/05/22 02:35:52;;;;;;;14.32;2.00;;;;;;;-145.12;100.00;63763.75;351245;27;71496;-65
2021/05/22 02:37:04;;;;;;;10.30;1.67;;;;;;;-145.12;100.00;63763.75;351330;27;70438;-67
2021/05/22 02:38:21;;;;;;;8.07;1.75;;;;;;;-145.12;100.00;63763.75;349818;28;71621;-67
2021/05/22 02:39:40;;;;;;;10.15;2.20;;;;;;;-145.12;100.00;63763.75;349777;28;71709;-67
2021/05/22 02:40:53;;;;;;;13.63;2.97;;;;;;;-145.12;100.00;63763.75;351309;27;70782;-64
2021/05/22 02:42:05;;;;;;;8.75;1.63;;;;;;;-145.12;100.00;63763.75;349714;28;71598;-67
2021/05/22 02:43:16;;;;;;;6.82;1.92;;;;;;;-145.12;100.00;63763.75;349750;28;71221;-66
2021/05/22 02:44:29;;;;;;;8.15;2.00;;;;;;;-145.12;100.00;63763.75;351334;28;71757;-66
2021/05/22 02:45:43;;;;;;;6.78;1.85;;;;;;;-145.12;100.00;63763.75;351327;27;71841;-67
2021/05/22 02:46:55;;;;;;;12.52;1.73;;;;;;;-145.12;100.00;63763.75;351339;28;68816;-67
2021/05/22 02:48:08;;;;;;;8.48;2.00;;;;;;;-145.12;100.00;63763.75;351309;28;71708;-67
2021/05/22 02:49:25;;;;;;;8.88;1.75;;;;;;;-145.12;100.00;63763.75;351208;27;71616;-68
2021/05/22 02:50:37;;;;;;;11.40;1.73;;;;;;;-145.12;100.00;63763.75;351172;27;71452;-67
2021/05/22 02:51:49;;;;;;;9.35;1.60;;;;;;;-145.12;100.00;63763.75;351298;27;71705;-68
2021/05/22 02:53:00;;;;;;;9.85;2.05;;;;;;;-145.12;100.00;63763.75;351937;27;71689;-68
2021/05/22 02:54:10;;;;;;;12.00;1.90;;;;;;;-145.12;100.00;63763.75;352701;27;70757;-68
2021/05/22 02:55:21;;;;;;;7.38;1.40;;;;;;;-145.12;100.00;63763.75;352698;27;70819;-67
2021/05/22 02:56:32;;;;;;;10.80;1.98;;;;;;;-145.12;100.00;63763.75;352687;27;71935;-68
2021/05/22 02:57:43;;;;;;;12.76;1.80;;;;;;;-145.12;100.00;63763.75;350516;27;92582;-67
2021/05/22 02:58:53;;;;;;;9.88;1.63;;;;;;;-145.12;100.00;63763.75;351232;27;71763;-67
2021/05/22 03:00:06;;;;;;;10.30;1.88;;;;;;;-145.12;100.00;63763.75;351297;28;70570;-67
2021/05/22 03:01:19;;;;;;;12.50;2.33;;;;;;;-145.12;100.00;63763.75;351212;28;72030;-66
2021/05/22 03:02:29;;;;;;;11.07;1.80;;;;;;;-145.12;100.00;63763.75;351288;27;71748;-67
2021/05/22 03:03:41;;;;;;;13.63;2.30;;;;;;;-145.12;100.00;63763.75;352079;27;71305;-67
2021/05/22 03:04:54;;;;;;;6.25;1.48;;;;;;;-145.12;100.00;63763.75;352721;27;71612;-67
2021/05/22 03:06:05;;;;;;;9.22;2.02;;;;;;;-145.12;100.00;63763.75;351958;27;94348;-67
2021/05/22 03:07:18;;;;;;;13.10;2.20;;;;;;;-145.12;100.00;63763.75;352647;27;71604;-66
2021/05/22 03:08:28;;;;;;;12.30;2.30;;;;;;;-145.12;100.00;63763.75;352675;27;71880;-67
2021/05/22 03:09:44;;;;;;;9.68;2.20;;;;;;;-145.12;100.00;63763.75;352675;27;71599;-66
2021/05/22 03:10:55;;;;;;;14.80;2.13;;;;;;;-145.12;100.00;63763.75;351164;28;72119;-68
2021/05/22 03:12:05;;;;;;;10.95;1.88;;;;;;;-145.12;100.00;63763.75;351044;27;71671;-68
2021/05/22 03:13:20;;;;;;;9.20;1.67;;;;;;;-145.12;100.00;63763.75;352673;27;71572;-67
2021/05/22 03:14:30;;;;;;;14.50;2.46;;;;;;;-145.12;100.00;63763.75;351855;27;94764;-66
2021/05/22 03:15:40;;;;;;;8.27;2.08;;;;;;;-145.12;100.00;63763.75;352602;27;71673;-68
2021/05/22 03:16:50;;;;;;;10.70;2.10;;;;;;;-145.12;100.00;63763.75;351821;27;94605;-64
2021/05/22 03:18:00;;;;;;;10.13;1.92;;;;;;;-145.12;100.00;63763.75;352696;27;70810;-67
2021/05/22 03:19:10;;;;;;;11.30;1.83;;;;;;;-145.12;100.00;63763.75;352729;27;71911;-66
2021/05/22 03:20:20;;;;;;;10.13;1.80;;;;;;;-145.12;100.00;63763.75;352674;27;70650;-63
2021/05/22 03:21:31;;;;;;;10.57;2.00;;;;;;;-145.12;100.00;63763.75;352668;27;70619;-63
2021/05/22 03:22:41;;;;;;;11.52;2.10;;;;;;;-145.12;100.00;63763.75;352674;27;71423;-63
2021/05/22 03:23:52;;;;;;;7.15;1.35;;;;;;;-145.12;100.00;63763.75;352705;27;69836;-64
2021/05/22 03:25:03;;;;;;;8.48;1.75;;;;;;;-145.12;100.00;63763.75;351175;28;71923;-64
2021/05/22 03:26:14;;;;;;;9.52;1.92;;;;;;;-145.12;100.00;63763.75;351251;28;69631;-66
2021/05/22 03:27:25;;;;;;;11.23;1.45;;;;;;;-145.12;100.00;63763.75;351299;28;71350;-63
2021/05/22 03:28:36;;;;;;;8.77;2.10;;;;;;;-145.12;100.00;63763.75;350460;28;94347;-67
2021/05/22 03:29:49;;;;;;;7.20;1.63;;;;;;;-145.12;100.00;63763.75;351253;28;68046;-64
2021/05/22 03:31:00;;;;;;;9.65;1.73;;;;;;;-145.12;100.00;63763.75;351193;28;71811;-67
2021/05/22 03:32:10;;;;;;;14.48;2.40;;;;;;;-145.12;100.00;63763.75;351261;28;69422;-68
2021/05/22 03:33:20;;;;;;;11.70;2.00;;;;;;;-145.12;100.00;63763.75;351331;28;70489;-67
2021/05/22 03:34:30;;;;;;;13.45;2.38;;;;;;;-145.12;100.00;63763.75;351194;28;71711;-68
2021/05/22 03:35:40;;;;;;;12.60;1.67;;;;;;;-145.12;100.00;63763.75;352630;27;70566;-68
2021/05/22 03:36:50;;;;;;;9.43;2.13;;;;;;;-145.12;100.00;63763.75;351230;27;71710;-68
2021/05/22 03:38:00;;;;;;;13.82;2.22;;;;;;;-145.12;100.00;63763.75;351525;27;70572;-70
2021/05/22 03:39:10;;;;;;;13.00;2.03;;;;;;;-145.12;100.00;63763.75;351466;27;71905;-67
2021/05/22 03:40:20;;;;;;;13.40;2.08;;;;;;;-145.12;100.00;63763.75;350803;27;94736;-68
2021/05/22 03:41:31;;;;;;;13.48;2.20;;;;;;;-145.12;100.00;63763.75;351551;27;71852;-68
2021/05/22 03:42:41;;;;;;;9.55;1.85;;;;;;;-145.12;100.00;63763.75;351507;27;71976;-65
2021/05/22 03:43:51;;;;;;;17.55;2.45;;;;;;;-145.12;100.00;63763.75;351511;27;72034;-67
2021/05/22 03:45:01;;;;;;;11.73;2.42;;;;;;;-145.12;100.00;63763.75;351565;27;71341;-67
2021/05/22 03:46:11;;;;;;;10.70;2.20;;;;;;;-145.12;100.00;63763.75;350860;27;94280;-64
2021/05/22 03:47:21;;;;;;;9.90;2.55;;;;;;;-145.12;100.00;63763.75;352955;27;71846;-64
2021/05/22 03:48:31;;;;;;;9.52;1.90;;;;;;;-145.12;100.00;63763.75;352860;27;71703;-66
2021/05/22 03:49:41;;;;;;;13.38;2.20;;;;;;;-145.12;100.00;63763.75;353040;27;69274;-67
2021/05/22 03:50:51;;;;;;;14.43;2.40;;;;;;;-145.12;100.00;63763.75;352968;27;71301;-68
2021/05/22 03:52:02;;;;;;;11.40;2.10;;;;;;;-145.12;100.00;63763.75;352988;27;71821;-67
2021/05/22 03:53:13;;;;;;;13.65;2.20;;;;;;;-145.12;100.00;63763.75;352904;27;71586;-68
2021/05/22 03:54:23;;;;;;;8.18;1.63;;;;;;;-145.12;100.00;63763.75;352702;27;74603;-68
2021/05/22 03:55:34;;;;;;;11.80;1.95;;;;;;;-145.12;100.00;63763.75;352951;27;71045;-68
2021/05/22 03:56:44;;;;;;;14.45;2.13;;;;;;;-145.12;100.00;63763.75;351885;27;71707;-64
2021/05/22 03:57:54;;;;;;;18.10;2.25;;;;;;;-145.12;100.00;63763.75;352936;27;71668;-68
2021/05/22 03:59:04;;;;;;;6.57;1.73;;;;;;;-145.12;100.00;63763.75;352950;27;71896;-66
2021/05/22 04:00:15;;;;;;;13.57;2.22;;;;;;;-145.12;100.00;63763.75;352941;27;71817;-68
2021/05/22 04:01:26;;;;;;;14.50;2.60;;;;;;;-145.12;100.00;63763.75;352879;27;71073;-66
2021/05/22 04:02:36;;;;;;;12.98;2.28;;;;;;;-145.12;100.00;63763.75;352907;27;71899;-70
2021/05/22 04:03:46;;;;;;;13.80;1.98;;;;;;;-145.12;100.00;63763.75;352952;27;71857;-67
2021/05/22 04:04:56;;;;;;;12.73;2.30;;;;;;;-145.12;100.00;63763.75;352913;27;71832;-69
2021/05/22 04:06:06;;;;;;;12.75;2.30;;;;;;;-145.12;100.00;63763.75;351407;27;68587;-67
2021/05/22 04:07:17;;;;;;;12.02;2.40;;;;;;;-145.12;100.00;63763.75;351491;27;69683;-67
2021/05/22 04:08:27;;;;;;;14.35;2.60;;;;;;;-145.12;100.00;63763.75;351564;27;70292;-68
2021/05/22 04:09:37;;;;;;;14.85;2.13;;;;;;;-145.12;100.00;63763.75;351509;27;71885;-64
2021/05/22 04:10:47;;;;;;;14.30;2.28;;;;;;;-145.12;100.00;63763.75;351470;27;70747;-68
2021/05/22 04:11:57;;;;;;;11.48;2.08;;;;;;;-145.12;100.00;63763.75;351472;27;71349;-68
2021/05/22 04:13:07;;;;;;;10.13;1.73;;;;;;;-145.12;100.00;63763.75;352937;27;71395;-68
2021/05/22 04:14:17;;;;;;;13.70;2.30;;;;;;;-145.12;100.00;63763.75;352966;27;71623;-64
2021/05/22 04:15:27;;;;;;;11.85;2.05;;;;;;;-145.12;100.00;63763.75;352888;27;71917;-68
2021/05/22 04:16:37;;;;;;;12.25;2.17;;;;;;;-145.12;100.00;63763.75;352882;27;71850;-63
2021/05/22 04:17:47;;;;;;;11.98;2.15;;;;;;;-145.12;100.00;63763.75;352836;27;71982;-67
2021/05/22 04:18:59;;;;;;;17.23;2.80;;;;;;;-145.12;100.00;63763.75;352891;27;71844;-68
2021/05/22 04:20:10;;;;;;;19.38;2.90;;;;;;;-145.12;100.00;63763.75;352722;27;72056;-67
2021/05/22 04:21:20;;;;;;;13.20;2.40;;;;;;;-145.12;100.00;63763.75;352131;27;94483;-64
2021/05/22 04:22:30;;;;;;;14.05;2.20;;;;;;;-145.12;100.00;63763.75;351413;27;69094;-67
2021/05/22 04:23:41;;;;;;;11.55;2.22;;;;;;;-145.12;100.00;63763.75;351426;27;71343;-67
2021/05/22 04:24:51;;;;;;;9.02;2.00;;;;;;;-145.12;100.00;63763.75;352705;27;71959;-68
2021/05/22 04:26:01;;;;;;;14.00;2.47;;;;;;;-145.12;100.00;63763.75;352879;27;71353;-67
2021/05/22 04:27:11;;;;;;;11.40;2.42;;;;;;;-145.12;100.00;63763.75;352984;27;70000;-68
2021/05/22 04:28:22;;;;;;;13.45;2.42;;;;;;;-145.12;100.00;63763.75;352921;27;71607;-67
2021/05/22 04:29:32;;;;;;;14.27;2.60;;;;;;;-145.12;100.00;63763.75;352731;27;70888;-66
2021/05/22 04:30:42;;;;;;;10.65;2.80;;;;;;;-145.12;100.00;63763.75;352932;27;69586;-67
2021/05/22 04:31:52;;;;;;;9.60;1.83;;;;;;;-145.12;100.00;63763.75;352977;27;69520;-67
2021/05/22 04:33:02;;;;;;;10.50;1.88;;;;;;;-145.12;100.00;63763.75;352797;27;71495;-67
2021/05/22 04:34:13;;;;;;;10.77;2.20;;;;;;;-145.12;100.00;63763.75;351391;27;69235;-63
2021/05/22 04:35:23;;;;;;;11.00;2.00;;;;;;;-145.12;100.00;63763.75;351342;27;71196;-68
2021/05/22 04:36:34;;;;;;;12.35;2.53;;;;;;;-145.12;100.00;63763.75;352963;27;70477;-67
2021/05/22 04:37:44;;;;;;;14.95;2.50;;;;;;;-145.12;100.00;63763.75;351412;27;70515;-67
2021/05/22 04:38:54;;;;;;;14.10;2.45;;;;;;;-145.12;100.00;63763.75;351327;27;70185;-64
2021/05/22 04:40:05;;;;;;;10.07;2.10;;;;;;;-145.12;100.00;63763.75;349974;28;71415;-68
2021/05/22 04:41:15;;;;;;;16.17;2.42;;;;;;;-145.12;100.00;63763.75;349909;28;70924;-65
2021/05/22 04:42:27;;;;;;;12.18;2.25;;;;;;;-145.12;100.00;63763.75;351490;27;70505;-66
2021/05/22 04:43:38;;;;;;;10.50;2.00;;;;;;;-145.12;100.00;63763.75;351404;27;71666;-67
2021/05/22 04:44:48;;;;;;;13.13;2.38;;;;;;;-145.12;100.00;63763.75;351461;27;71314;-66
2021/05/22 04:45:58;;;;;;;8.60;1.90;;;;;;;-145.12;100.00;63763.75;351452;27;71786;-66
2021/05/22 04:47:08;;;;;;;15.23;2.45;;;;;;;-145.12;100.00;63763.75;351395;27;71879;-64
2021/05/22 04:48:18;;;;;;;11.63;2.45;;;;;;;-145.12;100.00;63763.75;351554;27;68332;-68
2021/05/22 04:49:28;;;;;;;11.95;2.70;;;;;;;-145.12;100.00;63763.75;351361;27;71518;-66
2021/05/22 04:50:38;;;;;;;13.48;1.90;;;;;;;-145.12;100.00;63763.75;351391;27;70975;-66
2021/05/22 04:51:48;;;;;;;10.80;1.95;;;;;;;-145.12;100.00;63763.75;352830;27;71485;-66
2021/05/22 04:52:59;;;;;;;14.73;2.63;;;;;;;-145.12;100.00;63763.75;352803;27;71516;-65
2021/05/22 04:54:09;;;;;;;12.43;2.13;;;;;;;-145.12;100.00;63763.75;352892;27;70698;-66
2021/05/22 04:55:20;;;;;;;13.85;2.55;;;;;;;-145.12;100.00;63763.75;352928;27;70205;-66
2021/05/22 04:56:30;;;;;;;10.75;2.47;;;;;;;-145.12;100.00;63763.75;352801;27;71486;-66
2021/05/22 04:57:40;;;;;;;8.70;2.00;;;;;;;-145.12;100.00;63763.75;352862;27;71579;-67
2021/05/22 04:58:50;;;;;;;12.75;2.53;;;;;;;-145.12;100.00;63763.75;352863;27;71448;-66
2021/05/22 05:00:01;;;;;;;12.70;2.03;;;;;;;-145.12;100.00;63763.75;352837;27;71815;-66
2021/05/22 05:01:11;;;;;;;10.63;2.20;;;;;;;-145.12;100.00;63763.75;352697;27;70955;-67
2021/05/22 05:02:21;;;;;;;8.35;1.63;;;;;;;-145.12;100.00;63763.75;352884;27;70643;-66
2021/05/22 05:03:31;;;;;;;10.25;2.00;;;;;;;-145.12;100.00;63763.75;352780;27;71589;-64
2021/05/22 05:04:41;;;;;;;10.50;2.10;;;;;;;-145.12;100.00;63763.75;352691;27;71640;-68
2021/05/22 05:05:51;;;;;;;15.72;2.22;;;;;;;-145.12;100.00;63763.75;352007;27;94607;-66
2021/05/22 05:07:05;;;;;;;12.68;2.10;;;;;;;-145.12;100.00;63763.75;352929;27;69257;-65
2021/05/22 05:08:18;;;;;;;9.88;2.03;;;;;;;-145.12;100.00;63763.75;352810;27;71385;-67
2021/05/22 05:09:30;;;;;;;12.65;1.88;;;;;;;-145.12;100.00;63763.75;352930;27;69624;-67
2021/05/22 05:10:40;;;;;;;15.48;2.67;;;;;;;-145.12;100.00;63763.75;352829;27;70590;-66
2021/05/22 05:11:50;;;;;;;14.57;2.38;;;;;;;-145.12;100.00;63763.75;352842;27;71832;-66
2021/05/22 05:13:01;;;;;;;9.78;2.60;;;;;;;-145.12;100.00;63763.75;352069;27;94749;-67
2021/05/22 05:14:12;;;;;;;17.13;2.50;;;;;;;-145.12;100.00;63763.75;352860;27;71451;-67
2021/05/22 05:15:22;;;;;;;10.57;1.98;;;;;;;-145.12;100.00;63763.75;352787;27;71604;-67
2021/05/22 05:16:32;;;;;;;10.57;1.80;;;;;;;-145.12;100.00;63763.75;352840;27;71494;-66
2021/05/22 05:17:43;;;;;;;9.48;1.98;;;;;;;-145.12;100.00;63763.75;352865;27;70072;-68
2021/05/22 05:18:53;;;;;;;11.27;2.20;;;;;;;-145.12;100.00;63763.75;352758;27;70587;-66
2021/05/22 05:20:04;;;;;;;12.25;2.28;;;;;;;-145.12;100.00;63763.75;352089;27;93113;-66
2021/05/22 05:21:14;;;;;;;9.77;2.05;;;;;;;-145.12;100.00;63763.75;352831;27;71686;-66
2021/05/22 05:22:26;;;;;;;9.45;2.17;;;;;;;-145.12;100.00;63763.75;352829;27;70639;-67
2021/05/22 05:23:37;;;;;;;14.82;2.80;;;;;;;-145.12;100.00;63763.75;352760;27;70999;-65
2021/05/22 05:24:47;;;;;;;11.95;2.42;;;;;;;-145.12;100.00;63763.75;352830;27;71739;-67
2021/05/22 05:25:57;;;;;;;13.68;2.85;;;;;;;-145.12;100.00;63763.75;352810;27;70635;-69